sensor_id;sensor_type;location;lat;lon;timestamp;P1;durP1;ratioP1;P2;durP2;ratioP2
12906;SDS011;6521;50.498;8.474;2023-04-06T00:00:40;8.47;;;5.47;;
12906;SDS011;6521;50.498;8.474;2023-04-06T00:03:10;6.23;;;5.10;;
12906;SDS011;6521;50.498;8.474;2023-04-06T00:05:41;9.63;;;6.17;;
12906;SDS011;6521;50.498;8.474;2023-04-06T00:08:12;7.00;;;5.33;;
12906;SDS011;6521;50.498;8.474;2023-04-06T00:10:43;9.13;;;5.67;;
12906;SDS011;6521;50.498;8.474;2023-04-06T00:13:14;9.13;;;6.03;;
12906;SDS011;6521;50.498;8.474;2023-04-06T00:15:44;8.23;;;5.73;;
12906;SDS011;6521;50.498;8.474;2023-04-06T00:18:15;9.37;;;6.43;;
12906;SDS011;6521;50.498;8.474;2023-04-06T00:20:47;8.37;;;5.53;;
12906;SDS011;6521;50.498;8.474;2023-04-06T00:23:18;8.63;;;6.30;;
12906;SDS011;6521;50.498;8.474;2023-04-06T00:25:48;7.63;;;5.33;;
12906;SDS011;6521;50.498;8.474;2023-04-06T00:28:19;7.10;;;5.53;;
12906;SDS011;6521;50.498;8.474;2023-04-06T00:30:55;8.13;;;5.77;;
12906;SDS011;6521;50.498;8.474;2023-04-06T00:33:26;5.90;;;4.73;;
12906;SDS011;6521;50.498;8.474;2023-04-06T00:35:57;9.97;;;5.67;;
12906;SDS011;6521;50.498;8.474;2023-04-06T00:38:28;6.07;;;5.00;;
12906;SDS011;6521;50.498;8.474;2023-04-06T00:40:58;6.87;;;5.33;;
12906;SDS011;6521;50.498;8.474;2023-04-06T00:43:30;9.73;;;5.40;;
12906;SDS011;6521;50.498;8.474;2023-04-06T00:46:02;6.87;;;5.00;;
12906;SDS011;6521;50.498;8.474;2023-04-06T00:48:33;7.17;;;5.00;;
12906;SDS011;6521;50.498;8.474;2023-04-06T00:51:04;5.70;;;4.97;;
12906;SDS011;6521;50.498;8.474;2023-04-06T00:53:35;6.80;;;5.90;;
12906;SDS011;6521;50.498;8.474;2023-04-06T00:56:06;6.53;;;5.50;;
12906;SDS011;6521;50.498;8.474;2023-04-06T00:58:50;6.53;;;5.53;;
12906;SDS011;6521;50.498;8.474;2023-04-06T01:01:21;9.67;;;6.00;;
12906;SDS011;6521;50.498;8.474;2023-04-06T01:03:55;8.43;;;5.47;;
12906;SDS011;6521;50.498;8.474;2023-04-06T01:06:27;7.90;;;5.43;;
12906;SDS011;6521;50.498;8.474;2023-04-06T01:09:03;7.33;;;5.87;;
12906;SDS011;6521;50.498;8.474;2023-04-06T01:11:33;9.90;;;6.00;;
12906;SDS011;6521;50.498;8.474;2023-04-06T01:14:08;7.47;;;5.37;;
12906;SDS011;6521;50.498;8.474;2023-04-06T01:16:57;10.00;;;6.40;;
12906;SDS011;6521;50.498;8.474;2023-04-06T01:19:32;8.20;;;6.10;;
12906;SDS011;6521;50.498;8.474;2023-04-06T01:22:03;8.30;;;5.87;;
12906;SDS011;6521;50.498;8.474;2023-04-06T01:24:34;7.53;;;5.63;;
12906;SDS011;6521;50.498;8.474;2023-04-06T01:27:15;8.37;;;5.50;;
12906;SDS011;6521;50.498;8.474;2023-04-06T01:30:04;7.73;;;6.00;;
12906;SDS011;6521;50.498;8.474;2023-04-06T01:32:49;6.67;;;5.60;;
12906;SDS011;6521;50.498;8.474;2023-04-06T01:35:26;9.93;;;5.73;;
12906;SDS011;6521;50.498;8.474;2023-04-06T01:38:16;9.83;;;5.87;;
12906;SDS011;6521;50.498;8.474;2023-04-06T01:40:48;7.97;;;5.73;;
12906;SDS011;6521;50.498;8.474;2023-04-06T01:43:21;7.30;;;5.30;;
12906;SDS011;6521;50.498;8.474;2023-04-06T01:46:04;8.03;;;5.13;;
12906;SDS011;6521;50.498;8.474;2023-04-06T01:48:39;5.50;;;4.90;;
12906;SDS011;6521;50.498;8.474;2023-04-06T01:51:20;9.00;;;5.67;;
12906;SDS011;6521;50.498;8.474;2023-04-06T01:54:01;9.13;;;6.03;;
12906;SDS011;6521;50.498;8.474;2023-04-06T01:56:53;6.73;;;5.30;;
12906;SDS011;6521;50.498;8.474;2023-04-06T01:59:38;6.27;;;5.03;;
12906;SDS011;6521;50.498;8.474;2023-04-06T02:02:15;7.03;;;5.40;;
12906;SDS011;6521;50.498;8.474;2023-04-06T02:04:54;7.20;;;5.43;;
12906;SDS011;6521;50.498;8.474;2023-04-06T02:07:25;9.03;;;5.80;;
12906;SDS011;6521;50.498;8.474;2023-04-06T02:09:56;8.33;;;5.47;;
12906;SDS011;6521;50.498;8.474;2023-04-06T02:12:36;8.17;;;6.10;;
12906;SDS011;6521;50.498;8.474;2023-04-06T02:15:08;10.17;;;6.17;;
12906;SDS011;6521;50.498;8.474;2023-04-06T02:17:40;7.67;;;5.87;;
12906;SDS011;6521;50.498;8.474;2023-04-06T02:20:11;7.23;;;6.20;;
12906;SDS011;6521;50.498;8.474;2023-04-06T02:22:42;6.57;;;5.83;;
12906;SDS011;6521;50.498;8.474;2023-04-06T02:25:13;6.67;;;5.10;;
12906;SDS011;6521;50.498;8.474;2023-04-06T02:27:43;6.60;;;5.67;;
12906;SDS011;6521;50.498;8.474;2023-04-06T02:30:14;8.73;;;6.13;;
12906;SDS011;6521;50.498;8.474;2023-04-06T02:32:45;7.70;;;5.73;;
12906;SDS011;6521;50.498;8.474;2023-04-06T02:35:16;7.10;;;6.10;;
12906;SDS011;6521;50.498;8.474;2023-04-06T02:37:48;10.83;;;6.27;;
12906;SDS011;6521;50.498;8.474;2023-04-06T02:40:18;8.97;;;5.70;;
12906;SDS011;6521;50.498;8.474;2023-04-06T02:42:49;8.00;;;5.77;;
12906;SDS011;6521;50.498;8.474;2023-04-06T02:45:26;8.37;;;6.07;;
12906;SDS011;6521;50.498;8.474;2023-04-06T02:47:57;6.87;;;5.77;;
12906;SDS011;6521;50.498;8.474;2023-04-06T02:50:28;6.60;;;5.57;;
12906;SDS011;6521;50.498;8.474;2023-04-06T02:53:04;8.53;;;6.10;;
12906;SDS011;6521;50.498;8.474;2023-04-06T02:55:35;5.83;;;4.90;;
12906;SDS011;6521;50.498;8.474;2023-04-06T02:58:06;7.73;;;5.53;;
12906;SDS011;6521;50.498;8.474;2023-04-06T03:00:46;7.23;;;5.27;;
12906;SDS011;6521;50.498;8.474;2023-04-06T03:03:17;7.80;;;5.57;;
12906;SDS011;6521;50.498;8.474;2023-04-06T03:05:49;9.17;;;5.90;;
12906;SDS011;6521;50.498;8.474;2023-04-06T03:08:24;12.87;;;6.00;;
12906;SDS011;6521;50.498;8.474;2023-04-06T03:10:55;10.53;;;5.67;;
12906;SDS011;6521;50.498;8.474;2023-04-06T03:13:32;8.00;;;5.43;;
12906;SDS011;6521;50.498;8.474;2023-04-06T03:16:04;9.90;;;5.97;;
12906;SDS011;6521;50.498;8.474;2023-04-06T03:18:35;9.03;;;5.90;;
12906;SDS011;6521;50.498;8.474;2023-04-06T03:21:06;7.33;;;5.23;;
12906;SDS011;6521;50.498;8.474;2023-04-06T03:23:47;7.90;;;5.77;;
12906;SDS011;6521;50.498;8.474;2023-04-06T03:26:21;7.67;;;6.20;;
12906;SDS011;6521;50.498;8.474;2023-04-06T03:28:53;7.60;;;5.57;;
12906;SDS011;6521;50.498;8.474;2023-04-06T03:31:28;7.03;;;5.73;;
12906;SDS011;6521;50.498;8.474;2023-04-06T03:34:03;9.50;;;5.50;;
12906;SDS011;6521;50.498;8.474;2023-04-06T03:36:36;6.90;;;5.67;;
12906;SDS011;6521;50.498;8.474;2023-04-06T03:39:08;7.70;;;6.37;;
12906;SDS011;6521;50.498;8.474;2023-04-06T03:41:42;9.80;;;6.00;;
12906;SDS011;6521;50.498;8.474;2023-04-06T03:44:34;9.67;;;5.97;;
12906;SDS011;6521;50.498;8.474;2023-04-06T03:47:05;7.10;;;5.13;;
12906;SDS011;6521;50.498;8.474;2023-04-06T03:49:36;7.20;;;5.53;;
12906;SDS011;6521;50.498;8.474;2023-04-06T03:52:09;6.87;;;5.53;;
12906;SDS011;6521;50.498;8.474;2023-04-06T03:54:40;10.70;;;6.30;;
12906;SDS011;6521;50.498;8.474;2023-04-06T03:57:11;6.87;;;5.73;;
12906;SDS011;6521;50.498;8.474;2023-04-06T03:59:41;8.57;;;6.13;;
12906;SDS011;6521;50.498;8.474;2023-04-06T04:02:12;9.60;;;5.90;;
12906;SDS011;6521;50.498;8.474;2023-04-06T04:04:43;8.50;;;6.10;;
12906;SDS011;6521;50.498;8.474;2023-04-06T04:07:13;7.80;;;6.10;;
12906;SDS011;6521;50.498;8.474;2023-04-06T04:09:44;8.03;;;5.87;;
12906;SDS011;6521;50.498;8.474;2023-04-06T04:12:15;9.03;;;6.30;;
12906;SDS011;6521;50.498;8.474;2023-04-06T04:14:47;8.40;;;6.30;;
12906;SDS011;6521;50.498;8.474;2023-04-06T04:17:17;16.00;;;7.30;;
12906;SDS011;6521;50.498;8.474;2023-04-06T04:19:49;8.57;;;7.20;;
12906;SDS011;6521;50.498;8.474;2023-04-06T04:22:20;10.07;;;6.63;;
12906;SDS011;6521;50.498;8.474;2023-04-06T04:24:51;11.37;;;7.60;;
12906;SDS011;6521;50.498;8.474;2023-04-06T04:27:22;10.60;;;7.03;;
12906;SDS011;6521;50.498;8.474;2023-04-06T04:29:54;11.33;;;7.60;;
12906;SDS011;6521;50.498;8.474;2023-04-06T04:32:25;10.07;;;7.80;;
12906;SDS011;6521;50.498;8.474;2023-04-06T04:34:58;11.03;;;7.67;;
12906;SDS011;6521;50.498;8.474;2023-04-06T04:37:40;10.80;;;7.80;;
12906;SDS011;6521;50.498;8.474;2023-04-06T04:40:11;10.23;;;7.37;;
12906;SDS011;6521;50.498;8.474;2023-04-06T04:42:52;10.10;;;7.83;;
12906;SDS011;6521;50.498;8.474;2023-04-06T04:45:30;10.90;;;6.70;;
12906;SDS011;6521;50.498;8.474;2023-04-06T04:48:04;11.50;;;8.00;;
12906;SDS011;6521;50.498;8.474;2023-04-06T04:50:42;9.87;;;7.30;;
12906;SDS011;6521;50.498;8.474;2023-04-06T04:53:13;9.10;;;7.37;;
12906;SDS011;6521;50.498;8.474;2023-04-06T04:55:46;9.60;;;7.37;;
12906;SDS011;6521;50.498;8.474;2023-04-06T04:58:18;9.90;;;7.63;;
12906;SDS011;6521;50.498;8.474;2023-04-06T05:01:08;10.73;;;7.87;;
12906;SDS011;6521;50.498;8.474;2023-04-06T05:03:39;12.27;;;7.73;;
12906;SDS011;6521;50.498;8.474;2023-04-06T05:06:12;9.20;;;6.87;;
12906;SDS011;6521;50.498;8.474;2023-04-06T05:08:44;11.37;;;6.67;;
12906;SDS011;6521;50.498;8.474;2023-04-06T05:11:15;11.70;;;7.57;;
12906;SDS011;6521;50.498;8.474;2023-04-06T05:13:50;11.57;;;7.20;;
12906;SDS011;6521;50.498;8.474;2023-04-06T05:16:25;11.40;;;7.23;;
12906;SDS011;6521;50.498;8.474;2023-04-06T05:18:56;10.77;;;6.57;;
12906;SDS011;6521;50.498;8.474;2023-04-06T05:21:30;10.40;;;7.27;;
12906;SDS011;6521;50.498;8.474;2023-04-06T05:24:06;11.20;;;7.03;;
12906;SDS011;6521;50.498;8.474;2023-04-06T05:26:38;12.93;;;7.03;;
12906;SDS011;6521;50.498;8.474;2023-04-06T05:29:16;11.13;;;7.47;;
12906;SDS011;6521;50.498;8.474;2023-04-06T05:31:47;11.03;;;7.00;;
12906;SDS011;6521;50.498;8.474;2023-04-06T05:34:18;9.10;;;7.43;;
12906;SDS011;6521;50.498;8.474;2023-04-06T05:36:50;11.43;;;7.30;;
12906;SDS011;6521;50.498;8.474;2023-04-06T05:39:24;8.27;;;6.90;;
12906;SDS011;6521;50.498;8.474;2023-04-06T05:41:57;9.83;;;7.13;;
12906;SDS011;6521;50.498;8.474;2023-04-06T05:44:37;9.67;;;7.23;;
12906;SDS011;6521;50.498;8.474;2023-04-06T05:47:16;8.83;;;7.40;;
12906;SDS011;6521;50.498;8.474;2023-04-06T05:49:49;9.03;;;7.47;;
12906;SDS011;6521;50.498;8.474;2023-04-06T05:52:27;9.17;;;7.23;;
12906;SDS011;6521;50.498;8.474;2023-04-06T05:54:58;9.70;;;6.80;;
12906;SDS011;6521;50.498;8.474;2023-04-06T05:57:29;15.53;;;8.00;;
12906;SDS011;6521;50.498;8.474;2023-04-06T06:00:01;10.97;;;7.07;;
12906;SDS011;6521;50.498;8.474;2023-04-06T06:02:43;13.33;;;7.77;;
12906;SDS011;6521;50.498;8.474;2023-04-06T06:05:19;19.00;;;6.83;;
12906;SDS011;6521;50.498;8.474;2023-04-06T06:07:51;8.40;;;6.80;;
12906;SDS011;6521;50.498;8.474;2023-04-06T06:10:22;21.10;;;7.30;;
12906;SDS011;6521;50.498;8.474;2023-04-06T06:12:54;9.87;;;7.37;;
12906;SDS011;6521;50.498;8.474;2023-04-06T06:15:26;9.77;;;7.40;;
12906;SDS011;6521;50.498;8.474;2023-04-06T06:17:56;10.37;;;7.37;;
12906;SDS011;6521;50.498;8.474;2023-04-06T06:20:29;11.10;;;7.07;;
12906;SDS011;6521;50.498;8.474;2023-04-06T06:23:03;10.93;;;7.70;;
12906;SDS011;6521;50.498;8.474;2023-04-06T06:25:34;10.40;;;6.50;;
12906;SDS011;6521;50.498;8.474;2023-04-06T06:28:06;9.13;;;7.17;;
12906;SDS011;6521;50.498;8.474;2023-04-06T06:30:37;10.17;;;7.20;;
12906;SDS011;6521;50.498;8.474;2023-04-06T06:33:09;12.13;;;7.57;;
12906;SDS011;6521;50.498;8.474;2023-04-06T06:35:40;11.67;;;7.23;;
12906;SDS011;6521;50.498;8.474;2023-04-06T06:38:10;9.33;;;7.40;;
12906;SDS011;6521;50.498;8.474;2023-04-06T06:40:41;10.20;;;7.47;;
12906;SDS011;6521;50.498;8.474;2023-04-06T06:43:12;18.37;;;7.60;;
12906;SDS011;6521;50.498;8.474;2023-04-06T06:46:05;12.83;;;7.87;;
12906;SDS011;6521;50.498;8.474;2023-04-06T06:48:36;14.47;;;7.67;;
12906;SDS011;6521;50.498;8.474;2023-04-06T06:51:08;12.40;;;7.40;;
12906;SDS011;6521;50.498;8.474;2023-04-06T06:53:39;25.03;;;8.27;;
12906;SDS011;6521;50.498;8.474;2023-04-06T06:56:10;11.10;;;7.67;;
12906;SDS011;6521;50.498;8.474;2023-04-06T06:58:42;13.20;;;7.73;;
12906;SDS011;6521;50.498;8.474;2023-04-06T07:01:13;12.90;;;7.97;;
12906;SDS011;6521;50.498;8.474;2023-04-06T07:03:44;9.67;;;7.43;;
12906;SDS011;6521;50.498;8.474;2023-04-06T07:06:15;9.23;;;7.50;;
12906;SDS011;6521;50.498;8.474;2023-04-06T07:08:46;13.67;;;7.73;;
12906;SDS011;6521;50.498;8.474;2023-04-06T07:11:16;11.77;;;7.67;;
12906;SDS011;6521;50.498;8.474;2023-04-06T07:13:47;13.70;;;7.83;;
12906;SDS011;6521;50.498;8.474;2023-04-06T07:16:18;12.37;;;7.83;;
12906;SDS011;6521;50.498;8.474;2023-04-06T07:18:49;11.17;;;7.87;;
12906;SDS011;6521;50.498;8.474;2023-04-06T07:21:20;11.67;;;8.17;;
12906;SDS011;6521;50.498;8.474;2023-04-06T07:23:51;10.10;;;7.87;;
12906;SDS011;6521;50.498;8.474;2023-04-06T07:26:22;9.30;;;8.07;;
12906;SDS011;6521;50.498;8.474;2023-04-06T07:28:53;12.97;;;8.13;;
12906;SDS011;6521;50.498;8.474;2023-04-06T07:31:25;10.87;;;7.97;;
12906;SDS011;6521;50.498;8.474;2023-04-06T07:33:56;10.80;;;8.00;;
12906;SDS011;6521;50.498;8.474;2023-04-06T07:36:28;11.80;;;7.93;;
12906;SDS011;6521;50.498;8.474;2023-04-06T07:38:58;11.80;;;8.80;;
12906;SDS011;6521;50.498;8.474;2023-04-06T07:41:29;15.67;;;8.63;;
12906;SDS011;6521;50.498;8.474;2023-04-06T07:44:00;13.37;;;8.70;;
12906;SDS011;6521;50.498;8.474;2023-04-06T07:46:32;12.50;;;9.03;;
12906;SDS011;6521;50.498;8.474;2023-04-06T07:49:03;15.03;;;8.57;;
12906;SDS011;6521;50.498;8.474;2023-04-06T07:51:37;12.50;;;8.77;;
12906;SDS011;6521;50.498;8.474;2023-04-06T07:54:08;10.70;;;8.67;;
12906;SDS011;6521;50.498;8.474;2023-04-06T07:56:39;14.67;;;9.03;;
12906;SDS011;6521;50.498;8.474;2023-04-06T07:59:10;10.50;;;8.43;;
12906;SDS011;6521;50.498;8.474;2023-04-06T08:01:41;13.57;;;8.90;;
12906;SDS011;6521;50.498;8.474;2023-04-06T08:04:12;12.60;;;8.80;;
12906;SDS011;6521;50.498;8.474;2023-04-06T08:06:42;13.37;;;8.17;;
12906;SDS011;6521;50.498;8.474;2023-04-06T08:09:13;12.13;;;7.90;;
12906;SDS011;6521;50.498;8.474;2023-04-06T08:11:44;12.60;;;8.77;;
12906;SDS011;6521;50.498;8.474;2023-04-06T08:14:16;13.37;;;8.23;;
12906;SDS011;6521;50.498;8.474;2023-04-06T08:16:47;11.13;;;8.27;;
12906;SDS011;6521;50.498;8.474;2023-04-06T08:19:17;13.57;;;9.10;;
12906;SDS011;6521;50.498;8.474;2023-04-06T08:21:49;12.77;;;9.00;;
12906;SDS011;6521;50.498;8.474;2023-04-06T08:24:20;11.83;;;8.70;;
12906;SDS011;6521;50.498;8.474;2023-04-06T08:26:50;9.67;;;8.20;;
12906;SDS011;6521;50.498;8.474;2023-04-06T08:29:22;12.60;;;8.30;;
12906;SDS011;6521;50.498;8.474;2023-04-06T08:31:53;11.50;;;8.70;;
12906;SDS011;6521;50.498;8.474;2023-04-06T08:34:24;17.13;;;8.80;;
12906;SDS011;6521;50.498;8.474;2023-04-06T08:36:55;18.37;;;8.93;;
12906;SDS011;6521;50.498;8.474;2023-04-06T08:39:26;10.83;;;8.07;;
12906;SDS011;6521;50.498;8.474;2023-04-06T08:41:57;13.70;;;9.03;;
12906;SDS011;6521;50.498;8.474;2023-04-06T08:44:31;11.60;;;8.80;;
12906;SDS011;6521;50.498;8.474;2023-04-06T08:47:02;12.97;;;9.37;;
12906;SDS011;6521;50.498;8.474;2023-04-06T08:49:35;12.33;;;9.17;;
12906;SDS011;6521;50.498;8.474;2023-04-06T08:52:08;21.30;;;9.13;;
12906;SDS011;6521;50.498;8.474;2023-04-06T08:54:40;13.87;;;9.10;;
12906;SDS011;6521;50.498;8.474;2023-04-06T08:57:11;19.13;;;10.00;;
12906;SDS011;6521;50.498;8.474;2023-04-06T08:59:42;12.50;;;8.90;;
12906;SDS011;6521;50.498;8.474;2023-04-06T09:02:15;15.40;;;9.10;;
12906;SDS011;6521;50.498;8.474;2023-04-06T09:04:48;12.17;;;8.20;;
12906;SDS011;6521;50.498;8.474;2023-04-06T09:07:22;11.73;;;9.13;;
12906;SDS011;6521;50.498;8.474;2023-04-06T09:09:54;12.30;;;9.03;;
12906;SDS011;6521;50.498;8.474;2023-04-06T09:12:28;12.60;;;8.57;;
12906;SDS011;6521;50.498;8.474;2023-04-06T09:15:00;11.47;;;8.60;;
12906;SDS011;6521;50.498;8.474;2023-04-06T09:17:32;10.93;;;8.87;;
12906;SDS011;6521;50.498;8.474;2023-04-06T09:20:03;10.27;;;8.13;;
12906;SDS011;6521;50.498;8.474;2023-04-06T09:22:35;12.00;;;9.07;;
12906;SDS011;6521;50.498;8.474;2023-04-06T09:25:08;11.23;;;8.20;;
12906;SDS011;6521;50.498;8.474;2023-04-06T09:27:40;11.67;;;8.30;;
12906;SDS011;6521;50.498;8.474;2023-04-06T09:30:11;13.07;;;8.70;;
12906;SDS011;6521;50.498;8.474;2023-04-06T09:32:51;13.17;;;7.80;;
12906;SDS011;6521;50.498;8.474;2023-04-06T09:35:23;17.07;;;8.63;;
12906;SDS011;6521;50.498;8.474;2023-04-06T09:37:56;12.88;;;8.93;;
12906;SDS011;6521;50.498;8.474;2023-04-06T09:40:28;11.20;;;9.37;;
12906;SDS011;6521;50.498;8.474;2023-04-06T09:42:59;11.45;;;8.80;;
12906;SDS011;6521;50.498;8.474;2023-04-06T09:45:32;10.43;;;8.20;;
12906;SDS011;6521;50.498;8.474;2023-04-06T09:48:03;10.38;;;8.50;;
12906;SDS011;6521;50.498;8.474;2023-04-06T09:50:34;10.55;;;7.97;;
12906;SDS011;6521;50.498;8.474;2023-04-06T09:53:05;14.77;;;8.85;;
12906;SDS011;6521;50.498;8.474;2023-04-06T09:55:41;11.18;;;7.75;;
12906;SDS011;6521;50.498;8.474;2023-04-06T09:58:13;11.18;;;8.63;;
12906;SDS011;6521;50.498;8.474;2023-04-06T10:01:32;11.80;;;8.65;;
12906;SDS011;6521;50.498;8.474;2023-04-06T10:06:33;10.82;;;8.50;;
12906;SDS011;6521;50.498;8.474;2023-04-06T10:09:06;11.60;;;8.82;;
12906;SDS011;6521;50.498;8.474;2023-04-06T10:11:38;12.07;;;8.68;;
12906;SDS011;6521;50.498;8.474;2023-04-06T10:14:09;11.02;;;8.05;;
12906;SDS011;6521;50.498;8.474;2023-04-06T10:16:42;16.73;;;9.40;;
12906;SDS011;6521;50.498;8.474;2023-04-06T10:19:13;16.20;;;8.32;;
12906;SDS011;6521;50.498;8.474;2023-04-06T10:21:51;17.13;;;9.30;;
12906;SDS011;6521;50.498;8.474;2023-04-06T10:24:26;13.15;;;8.40;;
12906;SDS011;6521;50.498;8.474;2023-04-06T10:27:03;10.55;;;7.85;;
12906;SDS011;6521;50.498;8.474;2023-04-06T10:29:43;11.18;;;8.60;;
12906;SDS011;6521;50.498;8.474;2023-04-06T10:32:31;10.00;;;7.80;;
12906;SDS011;6521;50.498;8.474;2023-04-06T10:35:10;13.40;;;8.25;;
12906;SDS011;6521;50.498;8.474;2023-04-06T10:37:47;18.65;;;9.27;;
12906;SDS011;6521;50.498;8.474;2023-04-06T10:40:22;11.70;;;8.30;;
12906;SDS011;6521;50.498;8.474;2023-04-06T10:42:55;9.05;;;7.18;;
12906;SDS011;6521;50.498;8.474;2023-04-06T10:45:27;9.00;;;7.50;;
12906;SDS011;6521;50.498;8.474;2023-04-06T10:48:12;10.15;;;8.27;;
12906;SDS011;6521;50.498;8.474;2023-04-06T10:50:50;11.27;;;7.75;;
12906;SDS011;6521;50.498;8.474;2023-04-06T10:55:56;10.80;;;7.65;;
12906;SDS011;6521;50.498;8.474;2023-04-06T10:58:27;11.10;;;8.25;;
12906;SDS011;6521;50.498;8.474;2023-04-06T11:00:58;13.07;;;8.35;;
12906;SDS011;6521;50.498;8.474;2023-04-06T11:03:30;12.25;;;7.53;;
12906;SDS011;6521;50.498;8.474;2023-04-06T11:06:02;11.07;;;7.13;;
12906;SDS011;6521;50.498;8.474;2023-04-06T11:08:33;9.55;;;7.32;;
12906;SDS011;6521;50.498;8.474;2023-04-06T11:13:43;9.55;;;6.85;;
12906;SDS011;6521;50.498;8.474;2023-04-06T11:16:20;11.70;;;7.25;;
12906;SDS011;6521;50.498;8.474;2023-04-06T11:18:53;9.25;;;7.18;;
12906;SDS011;6521;50.498;8.474;2023-04-06T11:21:35;10.02;;;6.82;;
12906;SDS011;6521;50.498;8.474;2023-04-06T11:24:20;9.82;;;7.30;;
12906;SDS011;6521;50.498;8.474;2023-04-06T11:26:53;11.10;;;8.43;;
12906;SDS011;6521;50.498;8.474;2023-04-06T11:29:26;12.68;;;7.70;;
12906;SDS011;6521;50.498;8.474;2023-04-06T11:34:30;11.32;;;7.82;;
12906;SDS011;6521;50.498;8.474;2023-04-06T11:37:03;12.95;;;7.88;;
12906;SDS011;6521;50.498;8.474;2023-04-06T11:42:21;13.15;;;7.82;;
12906;SDS011;6521;50.498;8.474;2023-04-06T11:44:56;11.63;;;7.22;;
12906;SDS011;6521;50.498;8.474;2023-04-06T11:47:31;11.70;;;7.47;;
12906;SDS011;6521;50.498;8.474;2023-04-06T11:50:12;10.35;;;7.97;;
12906;SDS011;6521;50.498;8.474;2023-04-06T11:52:44;12.27;;;8.38;;
12906;SDS011;6521;50.498;8.474;2023-04-06T11:55:15;12.75;;;10.35;;
12906;SDS011;6521;50.498;8.474;2023-04-06T11:57:47;11.90;;;7.60;;
12906;SDS011;6521;50.498;8.474;2023-04-06T12:00:18;9.68;;;7.40;;
12906;SDS011;6521;50.498;8.474;2023-04-06T12:02:49;9.73;;;7.28;;
12906;SDS011;6521;50.498;8.474;2023-04-06T12:05:20;8.52;;;7.32;;
12906;SDS011;6521;50.498;8.474;2023-04-06T12:07:51;9.38;;;7.28;;
12906;SDS011;6521;50.498;8.474;2023-04-06T12:10:22;9.98;;;6.60;;
12906;SDS011;6521;50.498;8.474;2023-04-06T12:12:52;12.77;;;7.82;;
12906;SDS011;6521;50.498;8.474;2023-04-06T12:15:23;8.15;;;6.97;;
12906;SDS011;6521;50.498;8.474;2023-04-06T12:17:54;9.18;;;7.00;;
12906;SDS011;6521;50.498;8.474;2023-04-06T12:20:24;8.60;;;6.82;;
12906;SDS011;6521;50.498;8.474;2023-04-06T12:22:55;10.27;;;7.20;;
12906;SDS011;6521;50.498;8.474;2023-04-06T12:25:26;9.93;;;7.03;;
12906;SDS011;6521;50.498;8.474;2023-04-06T12:27:57;10.10;;;6.90;;
12906;SDS011;6521;50.498;8.474;2023-04-06T12:30:28;9.00;;;7.53;;
12906;SDS011;6521;50.498;8.474;2023-04-06T12:32:58;9.20;;;6.50;;
12906;SDS011;6521;50.498;8.474;2023-04-06T12:35:33;10.73;;;7.72;;
12906;SDS011;6521;50.498;8.474;2023-04-06T12:38:03;10.30;;;7.38;;
12906;SDS011;6521;50.498;8.474;2023-04-06T12:40:38;12.18;;;6.75;;
12906;SDS011;6521;50.498;8.474;2023-04-06T12:43:09;8.45;;;6.28;;
12906;SDS011;6521;50.498;8.474;2023-04-06T12:45:40;11.52;;;6.57;;
12906;SDS011;6521;50.498;8.474;2023-04-06T12:48:11;8.02;;;6.18;;
12906;SDS011;6521;50.498;8.474;2023-04-06T12:50:41;8.05;;;6.55;;
12906;SDS011;6521;50.498;8.474;2023-04-06T12:53:12;9.68;;;6.68;;
12906;SDS011;6521;50.498;8.474;2023-04-06T12:55:43;9.38;;;7.07;;
12906;SDS011;6521;50.498;8.474;2023-04-06T12:58:14;7.10;;;6.35;;
12906;SDS011;6521;50.498;8.474;2023-04-06T13:00:46;13.82;;;6.88;;
12906;SDS011;6521;50.498;8.474;2023-04-06T13:03:21;9.15;;;7.10;;
12906;SDS011;6521;50.498;8.474;2023-04-06T13:05:52;9.93;;;6.93;;
12906;SDS011;6521;50.498;8.474;2023-04-06T13:08:23;11.18;;;6.95;;
12906;SDS011;6521;50.498;8.474;2023-04-06T13:10:54;8.48;;;7.13;;
12906;SDS011;6521;50.498;8.474;2023-04-06T13:13:25;9.48;;;6.78;;
12906;SDS011;6521;50.498;8.474;2023-04-06T13:16:01;10.30;;;7.60;;
12906;SDS011;6521;50.498;8.474;2023-04-06T13:18:34;9.27;;;7.32;;
12906;SDS011;6521;50.498;8.474;2023-04-06T13:21:07;9.50;;;6.35;;
12906;SDS011;6521;50.498;8.474;2023-04-06T13:23:39;10.18;;;6.97;;
12906;SDS011;6521;50.498;8.474;2023-04-06T13:26:10;10.40;;;6.93;;
12906;SDS011;6521;50.498;8.474;2023-04-06T13:28:41;9.73;;;6.90;;
12906;SDS011;6521;50.498;8.474;2023-04-06T13:31:12;10.38;;;7.32;;
12906;SDS011;6521;50.498;8.474;2023-04-06T13:33:43;11.25;;;7.72;;
12906;SDS011;6521;50.498;8.474;2023-04-06T13:36:13;9.15;;;6.88;;
12906;SDS011;6521;50.498;8.474;2023-04-06T13:38:45;9.00;;;6.93;;
12906;SDS011;6521;50.498;8.474;2023-04-06T13:41:22;12.63;;;7.60;;
12906;SDS011;6521;50.498;8.474;2023-04-06T13:43:54;8.57;;;7.53;;
12906;SDS011;6521;50.498;8.474;2023-04-06T13:46:25;10.95;;;7.25;;
12906;SDS011;6521;50.498;8.474;2023-04-06T13:48:57;10.40;;;6.95;;
12906;SDS011;6521;50.498;8.474;2023-04-06T13:51:28;11.68;;;7.55;;
12906;SDS011;6521;50.498;8.474;2023-04-06T13:53:59;9.25;;;8.10;;
12906;SDS011;6521;50.498;8.474;2023-04-06T13:56:30;10.55;;;7.47;;
12906;SDS011;6521;50.498;8.474;2023-04-06T13:59:02;10.57;;;7.43;;
12906;SDS011;6521;50.498;8.474;2023-04-06T14:01:33;10.40;;;8.27;;
12906;SDS011;6521;50.498;8.474;2023-04-06T14:04:03;10.13;;;7.90;;
12906;SDS011;6521;50.498;8.474;2023-04-06T14:06:34;10.77;;;7.50;;
12906;SDS011;6521;50.498;8.474;2023-04-06T14:09:07;9.43;;;7.75;;
12906;SDS011;6521;50.498;8.474;2023-04-06T14:11:38;10.85;;;8.10;;
12906;SDS011;6521;50.498;8.474;2023-04-06T14:14:08;11.45;;;7.63;;
12906;SDS011;6521;50.498;8.474;2023-04-06T14:16:40;9.27;;;7.10;;
12906;SDS011;6521;50.498;8.474;2023-04-06T14:19:14;11.52;;;8.45;;
12906;SDS011;6521;50.498;8.474;2023-04-06T14:21:47;15.15;;;8.73;;
12906;SDS011;6521;50.498;8.474;2023-04-06T14:24:19;12.07;;;8.52;;
12906;SDS011;6521;50.498;8.474;2023-04-06T14:26:50;10.98;;;8.07;;
12906;SDS011;6521;50.498;8.474;2023-04-06T14:29:21;10.75;;;8.18;;
12906;SDS011;6521;50.498;8.474;2023-04-06T14:31:52;9.55;;;7.43;;
12906;SDS011;6521;50.498;8.474;2023-04-06T14:34:23;9.13;;;7.45;;
12906;SDS011;6521;50.498;8.474;2023-04-06T14:36:53;10.00;;;7.53;;
12906;SDS011;6521;50.498;8.474;2023-04-06T14:39:25;11.93;;;8.10;;
12906;SDS011;6521;50.498;8.474;2023-04-06T14:41:56;10.55;;;7.82;;
12906;SDS011;6521;50.498;8.474;2023-04-06T14:44:27;10.02;;;8.25;;
12906;SDS011;6521;50.498;8.474;2023-04-06T14:46:57;12.07;;;7.68;;
12906;SDS011;6521;50.498;8.474;2023-04-06T14:49:28;11.50;;;8.15;;
12906;SDS011;6521;50.498;8.474;2023-04-06T14:51:59;10.60;;;7.75;;
12906;SDS011;6521;50.498;8.474;2023-04-06T14:54:30;10.05;;;7.30;;
12906;SDS011;6521;50.498;8.474;2023-04-06T14:57:00;12.95;;;8.55;;
12906;SDS011;6521;50.498;8.474;2023-04-06T14:59:32;11.32;;;8.38;;
12906;SDS011;6521;50.498;8.474;2023-04-06T15:02:03;16.73;;;8.88;;
12906;SDS011;6521;50.498;8.474;2023-04-06T15:04:34;11.75;;;7.95;;
12906;SDS011;6521;50.498;8.474;2023-04-06T15:07:06;18.50;;;8.93;;
12906;SDS011;6521;50.498;8.474;2023-04-06T15:09:37;18.20;;;10.55;;
12906;SDS011;6521;50.498;8.474;2023-04-06T15:12:08;9.95;;;8.07;;
12906;SDS011;6521;50.498;8.474;2023-04-06T15:14:38;12.88;;;7.50;;
12906;SDS011;6521;50.498;8.474;2023-04-06T15:17:09;12.45;;;8.07;;
12906;SDS011;6521;50.498;8.474;2023-04-06T15:19:40;15.10;;;8.23;;
12906;SDS011;6521;50.498;8.474;2023-04-06T15:22:11;9.25;;;6.53;;
12906;SDS011;6521;50.498;8.474;2023-04-06T15:24:42;11.13;;;7.25;;
12906;SDS011;6521;50.498;8.474;2023-04-06T15:27:12;9.93;;;6.78;;
12906;SDS011;6521;50.498;8.474;2023-04-06T15:29:43;7.43;;;6.18;;
12906;SDS011;6521;50.498;8.474;2023-04-06T15:32:14;10.88;;;6.90;;
12906;SDS011;6521;50.498;8.474;2023-04-06T15:34:45;9.82;;;7.05;;
12906;SDS011;6521;50.498;8.474;2023-04-06T15:37:16;7.93;;;6.57;;
12906;SDS011;6521;50.498;8.474;2023-04-06T15:39:46;7.85;;;6.50;;